sensor_id;sensor_type;location;lat;lon;timestamp;pressure;altitude;pressure_sealevel;temperature;humidity
39267;BME280;24967;51.154;13.812;2023-05-15T00:01:55;99098.69;;;13.77;67.33
39267;BME280;24967;51.154;13.812;2023-05-15T00:04:21;99094.69;;;13.73;67.51
39267;BME280;24967;51.154;13.812;2023-05-15T00:06:48;99094.53;;;13.74;67.74
39267;BME280;24967;51.154;13.812;2023-05-15T00:09:14;99094.91;;;13.71;67.58
39267;BME280;24967;51.154;13.812;2023-05-15T00:11:41;99091.94;;;13.66;67.33
39267;BME280;24967;51.154;13.812;2023-05-15T00:14:09;99085.09;;;13.64;67.46
39267;BME280;24967;51.154;13.812;2023-05-15T00:16:35;99083.72;;;13.53;67.26
39267;BME280;24967;51.154;13.812;2023-05-15T00:19:02;99073.91;;;13.45;67.45
39267;BME280;24967;51.154;13.812;2023-05-15T00:21:28;99072.63;;;13.41;67.98
39267;BME280;24967;51.154;13.812;2023-05-15T00:23:55;99081.81;;;13.39;67.97
39267;BME280;24967;51.154;13.812;2023-05-15T00:26:23;99084.66;;;13.37;67.78
39267;BME280;24967;51.154;13.812;2023-05-15T00:28:50;99074.34;;;13.34;67.84
39267;BME280;24967;51.154;13.812;2023-05-15T00:31:18;99078.09;;;13.25;68.53
39267;BME280;24967;51.154;13.812;2023-05-15T00:33:44;99067.41;;;13.25;68.30
39267;BME280;24967;51.154;13.812;2023-05-15T00:36:11;99065.78;;;13.16;68.48
39267;BME280;24967;51.154;13.812;2023-05-15T00:38:38;99065.31;;;13.12;68.72
39267;BME280;24967;51.154;13.812;2023-05-15T00:41:05;99056.50;;;13.12;69.16
39267;BME280;24967;51.154;13.812;2023-05-15T00:43:32;99059.50;;;13.09;69.14
39267;BME280;24967;51.154;13.812;2023-05-15T00:46:00;99066.34;;;13.11;68.93
39267;BME280;24967;51.154;13.812;2023-05-15T00:48:29;99051.75;;;12.99;69.24
39267;BME280;24967;51.154;13.812;2023-05-15T00:50:56;99056.53;;;13.03;69.25
39267;BME280;24967;51.154;13.812;2023-05-15T00:53:24;99048.53;;;13.03;68.84
39267;BME280;24967;51.154;13.812;2023-05-15T00:55:53;99045.22;;;13.01;69.23
39267;BME280;24967;51.154;13.812;2023-05-15T00:58:22;99045.22;;;13.01;69.10
39267;BME280;24967;51.154;13.812;2023-05-15T01:00:49;99046.88;;;13.02;69.18
39267;BME280;24967;51.154;13.812;2023-05-15T01:03:16;99049.09;;;12.99;69.22
39267;BME280;24967;51.154;13.812;2023-05-15T01:05:44;99043.78;;;12.91;69.76
39267;BME280;24967;51.154;13.812;2023-05-15T01:08:15;99035.03;;;13.05;69.52
39267;BME280;24967;51.154;13.812;2023-05-15T01:10:44;99034.63;;;12.93;70.21
39267;BME280;24967;51.154;13.812;2023-05-15T01:13:13;99038.28;;;12.92;69.94
39267;BME280;24967;51.154;13.812;2023-05-15T01:15:39;99035.69;;;12.84;70.35
39267;BME280;24967;51.154;13.812;2023-05-15T01:18:06;99031.16;;;12.84;70.30
39267;BME280;24967;51.154;13.812;2023-05-15T01:20:42;99022.66;;;12.89;70.38
39267;BME280;24967;51.154;13.812;2023-05-15T01:23:19;99030.28;;;12.92;70.55
39267;BME280;24967;51.154;13.812;2023-05-15T01:26:10;99029.31;;;12.85;71.00
39267;BME280;24967;51.154;13.812;2023-05-15T01:28:47;99015.88;;;12.78;70.69
39267;BME280;24967;51.154;13.812;2023-05-15T01:31:18;99026.75;;;12.77;70.74
39267;BME280;24967;51.154;13.812;2023-05-15T01:33:53;99020.84;;;12.81;70.75
39267;BME280;24967;51.154;13.812;2023-05-15T01:36:25;99020.34;;;12.86;70.88
39267;BME280;24967;51.154;13.812;2023-05-15T01:38:57;99024.66;;;12.87;71.32
39267;BME280;24967;51.154;13.812;2023-05-15T01:41:28;99019.47;;;12.86;71.25
39267;BME280;24967;51.154;13.812;2023-05-15T01:44:01;99022.34;;;12.84;71.87
39267;BME280;24967;51.154;13.812;2023-05-15T01:46:30;99012.50;;;12.84;71.71
39267;BME280;24967;51.154;13.812;2023-05-15T01:48:57;99016.22;;;12.75;72.59
39267;BME280;24967;51.154;13.812;2023-05-15T01:51:26;99017.06;;;12.76;72.91
39267;BME280;24967;51.154;13.812;2023-05-15T01:56:43;99006.66;;;12.89;73.00
39267;BME280;24967;51.154;13.812;2023-05-15T01:59:12;99011.72;;;12.99;72.65
39267;BME280;24967;51.154;13.812;2023-05-15T02:01:40;99000.88;;;13.00;72.76
39267;BME280;24967;51.154;13.812;2023-05-15T02:04:07;99006.31;;;13.07;72.61
39267;BME280;24967;51.154;13.812;2023-05-15T02:06:35;99000.81;;;13.09;72.50
39267;BME280;24967;51.154;13.812;2023-05-15T02:09:03;98999.78;;;13.10;72.27
39267;BME280;24967;51.154;13.812;2023-05-15T02:11:30;98997.31;;;13.08;72.60
39267;BME280;24967;51.154;13.812;2023-05-15T02:13:57;98993.81;;;13.07;72.86
39267;BME280;24967;51.154;13.812;2023-05-15T02:16:26;98993.25;;;13.12;72.85
39267;BME280;24967;51.154;13.812;2023-05-15T02:18:53;98994.66;;;13.08;72.53
39267;BME280;24967;51.154;13.812;2023-05-15T02:21:19;98997.97;;;13.10;72.97
39267;BME280;24967;51.154;13.812;2023-05-15T02:23:46;98996.13;;;13.11;72.76
39267;BME280;24967;51.154;13.812;2023-05-15T02:26:23;98993.72;;;13.16;73.00
39267;BME280;24967;51.154;13.812;2023-05-15T02:29:03;98984.38;;;13.20;72.75
39267;BME280;24967;51.154;13.812;2023-05-15T02:31:37;98994.84;;;13.21;72.88
39267;BME280;24967;51.154;13.812;2023-05-15T02:34:15;98978.66;;;13.23;72.99
39267;BME280;24967;51.154;13.812;2023-05-15T02:36:46;98979.16;;;13.26;73.06
39267;BME280;24967;51.154;13.812;2023-05-15T02:39:14;98974.47;;;13.28;72.87
39267;BME280;24967;51.154;13.812;2023-05-15T02:41:42;98969.31;;;13.27;73.21
39267;BME280;24967;51.154;13.812;2023-05-15T02:44:09;98967.31;;;13.29;72.92
39267;BME280;24967;51.154;13.812;2023-05-15T02:46:38;98966.28;;;13.30;72.93
39267;BME280;24967;51.154;13.812;2023-05-15T02:49:06;98961.03;;;13.37;73.15
39267;BME280;24967;51.154;13.812;2023-05-15T02:51:33;98964.72;;;13.36;73.30
39267;BME280;24967;51.154;13.812;2023-05-15T02:54:00;98956.88;;;13.34;73.06
39267;BME280;24967;51.154;13.812;2023-05-15T02:56:26;98955.88;;;13.35;73.51
39267;BME280;24967;51.154;13.812;2023-05-15T02:58:53;98953.38;;;13.34;73.10
39267;BME280;24967;51.154;13.812;2023-05-15T03:01:19;98953.03;;;13.37;73.33
39267;BME280;24967;51.154;13.812;2023-05-15T03:03:47;98943.00;;;13.39;73.24
39267;BME280;24967;51.154;13.812;2023-05-15T03:06:14;98945.84;;;13.37;73.68
39267;BME280;24967;51.154;13.812;2023-05-15T03:08:40;98947.16;;;13.41;73.37
39267;BME280;24967;51.154;13.812;2023-05-15T03:11:07;98947.59;;;13.45;73.36
39267;BME280;24967;51.154;13.812;2023-05-15T03:13:33;98951.94;;;13.46;73.49
39267;BME280;24967;51.154;13.812;2023-05-15T03:16:00;98941.44;;;13.44;73.19
39267;BME280;24967;51.154;13.812;2023-05-15T03:18:26;98948.34;;;13.39;73.94
39267;BME280;24967;51.154;13.812;2023-05-15T03:20:54;98949.06;;;13.33;73.92
39267;BME280;24967;51.154;13.812;2023-05-15T03:23:20;98955.22;;;13.33;74.28
39267;BME280;24967;51.154;13.812;2023-05-15T03:25:47;98950.25;;;13.30;74.78
39267;BME280;24967;51.154;13.812;2023-05-15T03:28:13;98955.63;;;13.22;75.09
39267;BME280;24967;51.154;13.812;2023-05-15T03:30:42;98953.13;;;13.05;76.70
39267;BME280;24967;51.154;13.812;2023-05-15T03:33:09;98953.50;;;13.02;77.55
39267;BME280;24967;51.154;13.812;2023-05-15T03:35:35;98949.38;;;13.15;77.37
39267;BME280;24967;51.154;13.812;2023-05-15T03:38:03;98948.16;;;13.25;76.88
39267;BME280;24967;51.154;13.812;2023-05-15T03:40:29;98948.88;;;13.34;76.75
39267;BME280;24967;51.154;13.812;2023-05-15T03:42:56;98953.13;;;13.43;76.22
39267;BME280;24967;51.154;13.812;2023-05-15T03:45:22;98942.44;;;13.43;75.91
39267;BME280;24967;51.154;13.812;2023-05-15T03:47:49;98942.91;;;13.47;75.94
39267;BME280;24967;51.154;13.812;2023-05-15T03:50:15;98937.47;;;13.55;75.95
39267;BME280;24967;51.154;13.812;2023-05-15T03:52:42;98944.28;;;13.58;75.89
39267;BME280;24967;51.154;13.812;2023-05-15T03:55:10;98938.56;;;13.61;75.72
39267;BME280;24967;51.154;13.812;2023-05-15T03:57:36;98943.75;;;13.62;75.89
39267;BME280;24967;51.154;13.812;2023-05-15T04:00:06;98938.56;;;13.61;75.58
39267;BME280;24967;51.154;13.812;2023-05-15T04:02:34;98929.38;;;13.63;76.07
39267;BME280;24967;51.154;13.812;2023-05-15T04:05:01;98931.97;;;13.71;75.64
39267;BME280;24967;51.154;13.812;2023-05-15T04:07:27;98934.88;;;13.77;75.86
39267;BME280;24967;51.154;13.812;2023-05-15T04:09:54;98932.31;;;13.83;75.59
39267;BME280;24967;51.154;13.812;2023-05-15T04:12:22;98933.78;;;13.86;75.53
39267;BME280;24967;51.154;13.812;2023-05-15T04:14:51;98926.59;;;13.86;75.47
39267;BME280;24967;51.154;13.812;2023-05-15T04:17:17;98927.50;;;13.93;75.54
39267;BME280;24967;51.154;13.812;2023-05-15T04:19:43;98923.19;;;13.92;75.82
39267;BME280;24967;51.154;13.812;2023-05-15T04:22:12;98920.59;;;13.99;75.84
39267;BME280;24967;51.154;13.812;2023-05-15T04:24:38;98922.22;;;14.00;75.53
39267;BME280;24967;51.154;13.812;2023-05-15T04:27:05;98915.69;;;14.03;75.70
39267;BME280;24967;51.154;13.812;2023-05-15T04:29:33;98906.25;;;14.07;75.82
39267;BME280;24967;51.154;13.812;2023-05-15T04:31:59;98907.59;;;13.96;76.87
39267;BME280;24967;51.154;13.812;2023-05-15T04:34:26;98900.03;;;14.00;76.78
39267;BME280;24967;51.154;13.812;2023-05-15T04:36:53;98908.88;;;14.00;77.19
39267;BME280;24967;51.154;13.812;2023-05-15T04:39:20;98908.50;;;14.03;76.93
39267;BME280;24967;51.154;13.812;2023-05-15T04:41:46;98899.00;;;14.01;77.67
39267;BME280;24967;51.154;13.812;2023-05-15T04:44:12;98897.69;;;14.11;77.51
39267;BME280;24967;51.154;13.812;2023-05-15T04:46:40;98892.78;;;14.15;77.14
39267;BME280;24967;51.154;13.812;2023-05-15T04:49:07;98892.41;;;14.18;76.96
39267;BME280;24967;51.154;13.812;2023-05-15T04:51:33;98887.19;;;14.10;77.69
39267;BME280;24967;51.154;13.812;2023-05-15T04:54:00;98892.19;;;14.34;76.86
39267;BME280;24967;51.154;13.812;2023-05-15T04:56:26;98888.47;;;14.14;77.68
39267;BME280;24967;51.154;13.812;2023-05-15T04:58:53;98881.91;;;13.95;79.54
39267;BME280;24967;51.154;13.812;2023-05-15T05:01:20;98880.44;;;13.92;80.45
39267;BME280;24967;51.154;13.812;2023-05-15T05:03:47;98883.84;;;14.44;77.37
39267;BME280;24967;51.154;13.812;2023-05-15T05:06:14;98885.38;;;14.32;78.40
39267;BME280;24967;51.154;13.812;2023-05-15T05:08:40;98877.09;;;14.48;77.84
39267;BME280;24967;51.154;13.812;2023-05-15T05:11:07;98882.88;;;14.09;80.07
39267;BME280;24967;51.154;13.812;2023-05-15T05:13:33;98879.72;;;14.41;79.54
39267;BME280;24967;51.154;13.812;2023-05-15T05:16:00;98882.03;;;14.08;81.98
39267;BME280;24967;51.154;13.812;2023-05-15T05:18:29;98875.88;;;14.29;81.47
39267;BME280;24967;51.154;13.812;2023-05-15T05:21:02;98880.06;;;14.53;79.34
39267;BME280;24967;51.154;13.812;2023-05-15T05:23:29;98875.53;;;14.54;78.93
39267;BME280;24967;51.154;13.812;2023-05-15T05:25:56;98871.25;;;14.59;79.36
39267;BME280;24967;51.154;13.812;2023-05-15T05:28:22;98869.28;;;14.47;80.83
39267;BME280;24967;51.154;13.812;2023-05-15T05:30:49;98872.13;;;14.66;79.63
39267;BME280;24967;51.154;13.812;2023-05-15T05:33:15;98868.00;;;14.64;79.55
39267;BME280;24967;51.154;13.812;2023-05-15T05:35:42;98868.63;;;14.44;79.51
39267;BME280;24967;51.154;13.812;2023-05-15T05:38:09;98869.06;;;14.48;80.29
39267;BME280;24967;51.154;13.812;2023-05-15T05:40:36;98862.59;;;14.57;79.68
39267;BME280;24967;51.154;13.812;2023-05-15T05:43:03;98858.75;;;14.24;81.02
39267;BME280;24967;51.154;13.812;2023-05-15T05:45:29;98860.72;;;14.36;81.57
39267;BME280;24967;51.154;13.812;2023-05-15T05:47:56;98852.66;;;14.51;81.12
39267;BME280;24967;51.154;13.812;2023-05-15T05:50:23;98861.94;;;14.55;80.77
39267;BME280;24967;51.154;13.812;2023-05-15T05:52:49;98855.78;;;14.55;80.26
39267;BME280;24967;51.154;13.812;2023-05-15T05:55:17;98858.72;;;14.60;81.00
39267;BME280;24967;51.154;13.812;2023-05-15T05:57:44;98858.72;;;14.60;81.17
39267;BME280;24967;51.154;13.812;2023-05-15T06:00:11;98851.28;;;14.83;79.91
39267;BME280;24967;51.154;13.812;2023-05-15T06:02:39;98838.72;;;14.84;79.30
39267;BME280;24967;51.154;13.812;2023-05-15T06:05:06;98846.94;;;14.82;77.42
39267;BME280;24967;51.154;13.812;2023-05-15T06:07:32;98843.59;;;14.74;77.36
39267;BME280;24967;51.154;13.812;2023-05-15T06:09:59;98846.84;;;14.69;77.54
39267;BME280;24967;51.154;13.812;2023-05-15T06:12:27;98835.03;;;14.85;77.59
39267;BME280;24967;51.154;13.812;2023-05-15T06:14:53;98833.66;;;14.96;77.30
39267;BME280;24967;51.154;13.812;2023-05-15T06:17:20;98822.72;;;14.91;77.36
39267;BME280;24967;51.154;13.812;2023-05-15T06:19:46;98826.81;;;15.21;76.88
39267;BME280;24967;51.154;13.812;2023-05-15T06:22:13;98825.19;;;15.27;75.02
39267;BME280;24967;51.154;13.812;2023-05-15T06:24:39;98817.31;;;14.84;77.48
39267;BME280;24967;51.154;13.812;2023-05-15T06:27:06;98819.38;;;15.17;76.62
39267;BME280;24967;51.154;13.812;2023-05-15T06:29:34;98814.84;;;15.17;76.00
39267;BME280;24967;51.154;13.812;2023-05-15T06:32:01;98815.66;;;15.18;76.34
39267;BME280;24967;51.154;13.812;2023-05-15T06:34:27;98806.88;;;15.30;76.58
39267;BME280;24967;51.154;13.812;2023-05-15T06:36:53;98812.81;;;15.19;76.53
39267;BME280;24967;51.154;13.812;2023-05-15T06:39:20;98812.59;;;15.21;75.90
39267;BME280;24967;51.154;13.812;2023-05-15T06:41:46;98814.03;;;15.17;74.94
39267;BME280;24967;51.154;13.812;2023-05-15T06:44:13;98810.00;;;15.34;75.15
39267;BME280;24967;51.154;13.812;2023-05-15T06:46:41;98807.94;;;15.36;73.69
39267;BME280;24967;51.154;13.812;2023-05-15T06:49:07;98812.72;;;15.47;72.54
39267;BME280;24967;51.154;13.812;2023-05-15T06:51:34;98810.63;;;15.43;73.08
39267;BME280;24967;51.154;13.812;2023-05-15T06:54:00;98808.34;;;15.33;73.74
39267;BME280;24967;51.154;13.812;2023-05-15T06:56:27;98806.75;;;15.45;72.87
39267;BME280;24967;51.154;13.812;2023-05-15T06:58:53;98813.53;;;15.41;73.00
39267;BME280;24967;51.154;13.812;2023-05-15T07:01:20;98808.34;;;15.74;71.95
39267;BME280;24967;51.154;13.812;2023-05-15T07:03:48;98813.06;;;15.72;71.11
39267;BME280;24967;51.154;13.812;2023-05-15T07:06:14;98807.13;;;15.90;70.73
39267;BME280;24967;51.154;13.812;2023-05-15T07:08:41;98801.09;;;15.75;69.68
39267;BME280;24967;51.154;13.812;2023-05-15T07:11:07;98798.69;;;16.00;68.67
39267;BME280;24967;51.154;13.812;2023-05-15T07:13:34;98796.69;;;16.22;67.71
39267;BME280;24967;51.154;13.812;2023-05-15T07:16:01;98796.47;;;16.23;68.04
39267;BME280;24967;51.154;13.812;2023-05-15T07:18:29;98793.78;;;16.30;67.46
39267;BME280;24967;51.154;13.812;2023-05-15T07:20:56;98788.22;;;16.25;66.29
39267;BME280;24967;51.154;13.812;2023-05-15T07:23:23;98788.22;;;16.32;67.10
39267;BME280;24967;51.154;13.812;2023-05-15T07:25:51;98775.81;;;16.17;67.43
39267;BME280;24967;51.154;13.812;2023-05-15T07:28:18;98779.56;;;16.16;67.22
39267;BME280;24967;51.154;13.812;2023-05-15T07:30:44;98781.00;;;16.19;67.61
39267;BME280;24967;51.154;13.812;2023-05-15T07:33:10;98772.34;;;16.43;66.90
39267;BME280;24967;51.154;13.812;2023-05-15T07:35:37;98786.34;;;16.39;68.71
39267;BME280;24967;51.154;13.812;2023-05-15T07:38:05;98776.22;;;16.54;67.90
39267;BME280;24967;51.154;13.812;2023-05-15T07:40:31;98776.84;;;16.76;67.00
39267;BME280;24967;51.154;13.812;2023-05-15T07:42:58;98790.88;;;16.85;66.29
39267;BME280;24967;51.154;13.812;2023-05-15T07:45:24;98782.63;;;16.86;65.36
39267;BME280;24967;51.154;13.812;2023-05-15T07:47:51;98778.28;;;16.99;65.59
39267;BME280;24967;51.154;13.812;2023-05-15T07:50:17;98779.50;;;17.03;65.31
39267;BME280;24967;51.154;13.812;2023-05-15T07:52:44;98779.97;;;16.80;65.44
39267;BME280;24967;51.154;13.812;2023-05-15T07:55:12;98783.66;;;16.72;66.75
39267;BME280;24967;51.154;13.812;2023-05-15T07:57:38;98785.13;;;16.81;65.94
39267;BME280;24967;51.154;13.812;2023-05-15T08:00:07;98783.47;;;16.87;66.61
39267;BME280;24967;51.154;13.812;2023-05-15T08:02:36;98785.28;;;16.73;65.50
39267;BME280;24967;51.154;13.812;2023-05-15T08:05:04;98783.03;;;16.90;66.12
39267;BME280;24967;51.154;13.812;2023-05-15T08:07:31;98784.66;;;17.04;67.02
39267;BME280;24967;51.154;13.812;2023-05-15T08:09:58;98781.13;;;17.10;66.19
39267;BME280;24967;51.154;13.812;2023-05-15T08:12:26;98777.47;;;16.91;66.25
39267;BME280;24967;51.154;13.812;2023-05-15T08:14:54;98775.41;;;16.60;67.95
39267;BME280;24967;51.154;13.812;2023-05-15T08:17:20;98766.88;;;17.10;66.00
39267;BME280;24967;51.154;13.812;2023-05-15T08:19:47;98760.88;;;17.14;65.58
39267;BME280;24967;51.154;13.812;2023-05-15T08:22:14;98766.72;;;16.98;64.57
39267;BME280;24967;51.154;13.812;2023-05-15T08:24:41;98770.41;;;17.10;65.23
39267;BME280;24967;51.154;13.812;2023-05-15T08:27:09;98778.03;;;17.13;64.21
39267;BME280;24967;51.154;13.812;2023-05-15T08:29:37;98766.44;;;17.20;64.06
39267;BME280;24967;51.154;13.812;2023-05-15T08:32:05;98769.53;;;17.23;64.05
39267;BME280;24967;51.154;13.812;2023-05-15T08:34:31;98761.84;;;17.27;62.95
39267;BME280;24967;51.154;13.812;2023-05-15T08:36:58;98772.66;;;17.13;63.64
39267;BME280;24967;51.154;13.812;2023-05-15T08:39:24;98767.28;;;17.13;64.08
39267;BME280;24967;51.154;13.812;2023-05-15T08:41:56;98767.09;;;17.08;64.00
39267;BME280;24967;51.154;13.812;2023-05-15T08:44:23;98768.34;;;16.99;64.60
39267;BME280;24967;51.154;13.812;2023-05-15T08:46:52;98767.56;;;16.92;64.52
39267;BME280;24967;51.154;13.812;2023-05-15T08:49:29;98772.25;;;17.03;66.23
39267;BME280;24967;51.154;13.812;2023-05-15T08:51:58;98769.00;;;16.81;66.11
39267;BME280;24967;51.154;13.812;2023-05-15T08:54:25;98773.09;;;16.97;66.23
39267;BME280;24967;51.154;13.812;2023-05-15T08:56:52;98762.50;;;17.15;66.42
39267;BME280;24967;51.154;13.812;2023-05-15T08:59:18;98765.19;;;17.15;66.40
39267;BME280;24967;51.154;13.812;2023-05-15T09:01:45;98767.66;;;17.24;66.10
39267;BME280;24967;51.154;13.812;2023-05-15T09:04:13;98761.06;;;17.20;67.40
39267;BME280;24967;51.154;13.812;2023-05-15T09:06:39;98755.03;;;17.24;67.57
39267;BME280;24967;51.154;13.812;2023-05-15T09:09:08;98749.78;;;17.43;66.39
39267;BME280;24967;51.154;13.812;2023-05-15T09:11:39;98758.75;;;17.30;67.02
39267;BME280;24967;51.154;13.812;2023-05-15T09:14:07;98750.34;;;17.13;66.35
39267;BME280;24967;51.154;13.812;2023-05-15T09:16:33;98748.53;;;17.45;67.48
39267;BME280;24967;51.154;13.812;2023-05-15T09:19:00;98754.72;;;17.52;67.20
39267;BME280;24967;51.154;13.812;2023-05-15T09:21:29;98755.31;;;17.61;65.17
39267;BME280;24967;51.154;13.812;2023-05-15T09:24:17;98747.38;;;17.73;64.89
39267;BME280;24967;51.154;13.812;2023-05-15T09:26:46;98748.06;;;17.55;66.08
39267;BME280;24967;51.154;13.812;2023-05-15T09:29:15;98751.22;;;17.45;64.53
39267;BME280;24967;51.154;13.812;2023-05-15T09:31:42;98748.78;;;17.44;63.11
39267;BME280;24967;51.154;13.812;2023-05-15T09:34:08;98742.94;;;17.53;62.49
39267;BME280;24967;51.154;13.812;2023-05-15T09:36:41;98741.88;;;17.54;63.43
39267;BME280;24967;51.154;13.812;2023-05-15T09:39:08;98748.22;;;17.67;63.31
39267;BME280;24967;51.154;13.812;2023-05-15T09:41:40;98740.28;;;17.85;63.03
39267;BME280;24967;51.154;13.812;2023-05-15T09:44:17;98747.69;;;17.51;61.73
39267;BME280;24967;51.154;13.812;2023-05-15T09:46:43;98743.69;;;17.67;62.02
39267;BME280;24967;51.154;13.812;2023-05-15T09:49:10;98747.09;;;17.88;61.18
39267;BME280;24967;51.154;13.812;2023-05-15T09:51:38;98737.97;;;17.95;61.16
39267;BME280;24967;51.154;13.812;2023-05-15T09:54:05;98741.56;;;17.76;62.26
39267;BME280;24967;51.154;13.812;2023-05-15T09:56:36;98740.69;;;17.89;63.88
39267;BME280;24967;51.154;13.812;2023-05-15T09:59:02;98738.97;;;18.01;62.27
39267;BME280;24967;51.154;13.812;2023-05-15T10:01:29;98742.78;;;18.12;61.92
39267;BME280;24967;51.154;13.812;2023-05-15T10:03:56;98742.84;;;18.05;61.92
39267;BME280;24967;51.154;13.812;2023-05-15T10:06:24;98736.81;;;18.35;61.00
39267;BME280;24967;51.154;13.812;2023-05-15T10:08:52;98743.53;;;18.25;60.68
39267;BME280;24967;51.154;13.812;2023-05-15T10:11:19;98741.13;;;17.85;60.89
39267;BME280;24967;51.154;13.812;2023-05-15T10:13:47;98739.41;;;18.23;61.49
39267;BME280;24967;51.154;13.812;2023-05-15T10:16:14;98730.13;;;18.44;59.97
39267;BME280;24967;51.154;13.812;2023-05-15T10:18:42;98733.59;;;18.26;56.35
39267;BME280;24967;51.154;13.812;2023-05-15T10:21:10;98727.91;;;18.59;56.86
39267;BME280;24967;51.154;13.812;2023-05-15T10:23:40;98729.34;;;18.62;57.95
39267;BME280;24967;51.154;13.812;2023-05-15T10:26:13;98722.59;;;18.52;56.31
39267;BME280;24967;51.154;13.812;2023-05-15T10:28:42;98725.25;;;18.77;58.08
39267;BME280;24967;51.154;13.812;2023-05-15T10:31:10;98726.00;;;19.03;56.30
39267;BME280;24967;51.154;13.812;2023-05-15T10:33:38;98721.06;;;19.00;58.53
39267;BME280;24967;51.154;13.812;2023-05-15T10:36:06;98716.25;;;19.39;55.72
39267;BME280;24967;51.154;13.812;2023-05-15T10:38:34;98711.22;;;19.42;57.48
39267;BME280;24967;51.154;13.812;2023-05-15T10:41:02;98718.66;;;19.77;56.61
39267;BME280;24967;51.154;13.812;2023-05-15T10:43:32;98712.41;;;19.65;56.57
39267;BME280;24967;51.154;13.812;2023-05-15T10:45:59;98710.47;;;19.96;55.23
39267;BME280;24967;51.154;13.812;2023-05-15T10:48:26;98712.13;;;19.85;54.43
39267;BME280;24967;51.154;13.812;2023-05-15T10:50:52;98700.72;;;19.83;52.48
39267;BME280;24967;51.154;13.812;2023-05-15T10:53:19;98706.03;;;20.01;52.05
39267;BME280;24967;51.154;13.812;2023-05-15T10:55:47;98692.69;;;20.42;53.44
39267;BME280;24967;51.154;13.812;2023-05-15T10:58:14;98692.50;;;20.67;54.23
39267;BME280;24967;51.154;13.812;2023-05-15T11:00:43;98689.41;;;20.87;52.78
39267;BME280;24967;51.154;13.812;2023-05-15T11:03:12;98682.00;;;20.94;52.62
39267;BME280;24967;51.154;13.812;2023-05-15T11:06:07;98677.91;;;20.79;51.73
39267;BME280;24967;51.154;13.812;2023-05-15T11:08:35;98676.03;;;20.68;49.20
39267;BME280;24967;51.154;13.812;2023-05-15T11:11:01;98670.03;;;20.66;51.53
39267;BME280;24967;51.154;13.812;2023-05-15T11:16:56;98665.41;;;21.02;50.17
39267;BME280;24967;51.154;13.812;2023-05-15T11:19:24;98654.41;;;20.80;50.17
39267;BME280;24967;51.154;13.812;2023-05-15T11:21:55;98654.31;;;20.63;50.14
39267;BME280;24967;51.154;13.812;2023-05-15T11:24:25;98646.75;;;21.00;49.00
39267;BME280;24967;51.154;13.812;2023-05-15T11:26:58;98646.91;;;20.82;50.59
39267;BME280;24967;51.154;13.812;2023-05-15T11:29:25;98642.56;;;20.69;52.13
39267;BME280;24967;51.154;13.812;2023-05-15T11:31:51;98639.75;;;20.76;48.15
39267;BME280;24967;51.154;13.812;2023-05-15T11:34:29;98651.81;;;20.97;46.59
39267;BME280;24967;51.154;13.812;2023-05-15T11:36:57;98645.38;;;20.74;47.18
39267;BME280;24967;51.154;13.812;2023-05-15T11:39:24;98639.06;;;20.69;49.26
39267;BME280;24967;51.154;13.812;2023-05-15T11:41:51;98637.88;;;20.76;47.69
39267;BME280;24967;51.154;13.812;2023-05-15T11:44:21;98631.81;;;20.57;46.94
39267;BME280;24967;51.154;13.812;2023-05-15T11:46:48;98631.75;;;20.81;45.95
39267;BME280;24967;51.154;13.812;2023-05-15T11:51:46;98633.91;;;20.44;45.47
39267;BME280;24967;51.154;13.812;2023-05-15T11:54:13;98640.03;;;20.27;46.89
39267;BME280;24967;51.154;13.812;2023-05-15T11:56:41;98636.72;;;20.13;45.69
39267;BME280;24967;51.154;13.812;2023-05-15T11:59:11;98638.47;;;20.08;46.71
39267;BME280;24967;51.154;13.812;2023-05-15T12:01:38;98648.22;;;19.85;47.26
39267;BME280;24967;51.154;13.812;2023-05-15T12:04:11;98642.81;;;20.09;47.77
39267;BME280;24967;51.154;13.812;2023-05-15T12:06:38;98648.56;;;19.89;50.95
39267;BME280;24967;51.154;13.812;2023-05-15T12:09:12;98647.59;;;19.72;53.04
39267;BME280;24967;51.154;13.812;2023-05-15T12:11:39;98643.25;;;19.40;54.56
39267;BME280;24967;51.154;13.812;2023-05-15T12:14:10;98642.81;;;19.43;56.23
39267;BME280;24967;51.154;13.812;2023-05-15T12:16:36;98639.19;;;19.19;54.85
39267;BME280;24967;51.154;13.812;2023-05-15T12:19:02;98634.16;;;19.23;55.47
39267;BME280;24967;51.154;13.812;2023-05-15T12:21:30;98634.88;;;19.00;56.76
39267;BME280;24967;51.154;13.812;2023-05-15T12:23:56;98631.66;;;19.40;54.59
39267;BME280;24967;51.154;13.812;2023-05-15T12:26:25;98630.47;;;19.66;54.42
39267;BME280;24967;51.154;13.812;2023-05-15T12:28:53;98633.88;;;19.73;52.03
39267;BME280;24967;51.154;13.812;2023-05-15T12:31:20;98629.47;;;19.60;53.94
39267;BME280;24967;51.154;13.812;2023-05-15T12:33:47;98631.06;;;19.80;53.03
39267;BME280;24967;51.154;13.812;2023-05-15T12:36:13;98624.88;;;19.79;53.38
39267;BME280;24967;51.154;13.812;2023-05-15T12:38:40;98622.44;;;19.59;53.78
39267;BME280;24967;51.154;13.812;2023-05-15T12:41:09;98625.16;;;19.59;54.33
39267;BME280;24967;51.154;13.812;2023-05-15T12:43:38;98625.69;;;19.92;52.81
39267;BME280;24967;51.154;13.812;2023-05-15T12:46:05;98621.38;;;20.14;53.48
39267;BME280;24967;51.154;13.812;2023-05-15T12:48:31;98623.03;;;20.03;51.71
39267;BME280;24967;51.154;13.812;2023-05-15T12:51:04;98615.16;;;20.25;51.80
39267;BME280;24967;51.154;13.812;2023-05-15T12:53:31;98617.72;;;20.32;50.99
39267;BME280;24967;51.154;13.812;2023-05-15T12:55:58;98613.72;;;20.58;51.40
39267;BME280;24967;51.154;13.812;2023-05-15T12:58:25;98615.63;;;20.57;50.51
39267;BME280;24967;51.154;13.812;2023-05-15T13:00:53;98620.53;;;20.61;51.02
39267;BME280;24967;51.154;13.812;2023-05-15T13:03:21;98620.75;;;20.47;51.38